Time;durP1;ratioP1;P1;durP2;ratioP2;P2;SDS_P1;SDS_P2;PMS_P1;PMS_P2;Temp;Humidity;BMP_temperature;BMP_pressure;BME280_temperature;BME280_humidity;BME280_pressure;Samples;Min_cycle;Max_cycle;Signal;HPM_P1;HPM_P2
2022/03/09 00:00:30;;;;;;;8.25;4.50;;;;;;;-0.63;58.37;100756.86;1728061;81;21056;-67
2022/03/09 00:02:57;;;;;;;8.90;4.97;;;;;;;-0.67;58.36;100758.21;1683714;83;21058;-67
2022/03/09 00:05:24;;;;;;;10.80;5.25;;;;;;;-0.67;58.36;100760.33;1687267;83;21143;-66
2022/03/09 00:07:52;;;;;;;7.85;4.50;;;;;;;-0.66;58.47;100755.90;1714919;81;22351;-67
2022/03/09 00:10:19;;;;;;;6.80;4.00;;;;;;;-0.61;58.46;100757.00;1721797;81;21093;-67
2022/03/09 00:12:47;;;;;;;6.12;4.00;;;;;;;-0.63;58.42;100747.67;1711887;81;21115;-67
2022/03/09 00:15:14;;;;;;;7.30;4.22;;;;;;;-0.64;58.46;100755.23;1725411;81;21111;-67
2022/03/09 00:17:41;;;;;;;6.92;4.30;;;;;;;-0.70;58.63;100756.75;1732634;81;21027;-67
2022/03/09 00:20:10;;;;;;;7.30;4.35;;;;;;;-0.75;58.57;100754.67;1721362;82;21153;-67
2022/03/09 00:22:39;;;;;;;8.95;4.50;;;;;;;-0.78;58.64;100752.41;1696535;84;21074;-67
2022/03/09 00:25:07;;;;;;;7.92;4.55;;;;;;;-0.78;58.79;100756.34;1696911;84;21077;-67
2022/03/09 00:27:34;;;;;;;8.03;5.17;;;;;;;-0.80;58.99;100758.31;1717426;81;21363;-67
2022/03/09 00:30:04;;;;;;;7.97;4.20;;;;;;;-0.79;59.16;100757.34;1725797;81;21047;-67
2022/03/09 00:32:31;;;;;;;7.62;4.75;;;;;;;-0.78;59.32;100756.34;1727961;82;21109;-67
2022/03/09 00:34:58;;;;;;;7.65;4.60;;;;;;;-0.79;59.52;100755.19;1718158;82;21115;-66
2022/03/09 00:37:25;;;;;;;8.73;5.05;;;;;;;-0.82;59.67;100756.38;1713833;81;21116;-66
2022/03/09 00:39:53;;;;;;;9.70;5.20;;;;;;;-0.84;59.86;100753.11;1697006;83;21022;-65
2022/03/09 00:42:20;;;;;;;6.60;3.98;;;;;;;-0.82;60.06;100752.95;1717187;81;21174;-67
2022/03/09 00:44:47;;;;;;;7.47;4.50;;;;;;;-0.79;60.23;100753.41;1712856;83;21053;-67
2022/03/09 00:47:15;;;;;;;6.60;3.92;;;;;;;-0.80;60.31;100753.57;1712448;82;21338;-67
2022/03/09 00:49:42;;;;;;;6.78;3.47;;;;;;;-0.83;60.33;100752.61;1707370;83;21101;-66
2022/03/09 00:52:10;;;;;;;7.17;4.35;;;;;;;-0.81;60.62;100758.50;1718268;81;21128;-66
2022/03/09 00:54:38;;;;;;;6.65;3.95;;;;;;;-0.82;60.71;100756.38;1708751;81;21030;-66
2022/03/09 00:57:05;;;;;;;6.75;4.17;;;;;;;-0.81;60.90;100754.07;1685256;84;21100;-66
2022/03/09 00:59:31;;;;;;;6.97;3.70;;;;;;;-0.81;60.98;100758.00;1709613;82;21182;-66
2022/03/09 01:01:58;;;;;;;8.53;4.40;;;;;;;-0.78;61.05;100764.20;1719270;81;21104;-67
2022/03/09 01:04:25;;;;;;;7.40;4.15;;;;;;;-0.78;60.97;100751.09;1691940;83;20963;-67
2022/03/09 01:06:53;;;;;;;6.65;4.30;;;;;;;-0.81;60.91;100758.00;1727022;83;21544;-67
2022/03/09 01:09:20;;;;;;;6.65;3.98;;;;;;;-0.83;60.88;100753.42;1698901;83;21025;-67
2022/03/09 01:11:46;;;;;;;7.30;4.08;;;;;;;-0.85;60.98;100761.17;1716979;81;21258;-67
2022/03/09 01:14:13;;;;;;;6.80;4.40;;;;;;;-0.91;61.11;100756.13;1704855;83;21020;-68
2022/03/09 01:16:40;;;;;;;8.48;4.60;;;;;;;-0.93;61.11;100763.34;1709830;83;21002;-67
2022/03/09 01:19:09;;;;;;;8.98;4.67;;;;;;;-0.96;61.20;100763.20;1712695;81;21050;-66
2022/03/09 01:21:36;;;;;;;7.75;4.90;;;;;;;-0.99;61.41;100760.11;1709335;83;21078;-68
2022/03/09 01:24:06;;;;;;;7.47;4.25;;;;;;;-0.98;61.54;100763.88;1713393;81;21439;-67
2022/03/09 01:26:34;;;;;;;8.35;4.92;;;;;;;-0.97;61.59;100758.95;1712200;81;20995;-67
2022/03/09 01:29:01;;;;;;;7.62;4.45;;;;;;;-1.00;61.67;100759.80;1712957;83;21121;-67
2022/03/09 01:31:29;;;;;;;7.60;4.40;;;;;;;-1.00;61.89;100757.98;1712197;83;21656;-67
2022/03/09 01:33:56;;;;;;;8.05;4.83;;;;;;;-0.96;61.90;100761.07;1714343;81;21028;-67
2022/03/09 01:36:25;;;;;;;6.90;4.50;;;;;;;-0.96;61.85;100761.07;1712925;83;21150;-66
2022/03/09 01:38:52;;;;;;;7.45;4.40;;;;;;;-0.97;61.90;100761.58;1716274;81;21131;-67
2022/03/09 01:41:19;;;;;;;6.97;3.87;;;;;;;-0.93;61.98;100764.66;1688397;82;21123;-68
2022/03/09 01:44:11;;;;;;;7.25;4.30;;;;;;;-0.88;62.01;100772.82;1719148;81;21121;-67
2022/03/09 01:46:38;;;;;;;7.10;4.72;;;;;;;-0.87;61.81;100769.20;1713125;82;21077;-66
2022/03/09 01:49:06;;;;;;;7.35;4.22;;;;;;;-0.89;61.69;100769.86;1686123;83;21153;-67
2022/03/09 01:51:38;;;;;;;8.43;4.50;;;;;;;-0.91;61.61;100771.05;1726160;81;21008;-67
2022/03/09 01:54:04;;;;;;;8.78;4.70;;;;;;;-0.93;61.49;100771.70;1727247;83;21027;-66
2022/03/09 01:56:33;;;;;;;7.30;4.78;;;;;;;-0.95;61.51;100775.33;1721507;82;21052;-68
2022/03/09 01:59:07;;;;;;;7.92;4.42;;;;;;;-0.98;61.52;100778.80;1719498;81;21146;-67
2022/03/09 02:01:35;;;;;;;8.55;4.80;;;;;;;-0.98;61.61;100782.73;1707962;82;21733;-66
2022/03/09 02:04:04;;;;;;;7.00;4.05;;;;;;;-0.98;61.58;100779.61;1714534;81;21083;-67
2022/03/09 02:06:33;;;;;;;8.63;4.83;;;;;;;-0.94;61.50;100777.45;1717575;83;21769;-66
2022/03/09 02:11:50;;;;;;;7.35;4.53;;;;;;;-0.93;61.50;100781.70;1714171;82;21136;-67
2022/03/09 02:14:36;;;;;;;7.58;4.70;;;;;;;-0.87;61.52;100781.50;1713460;81;21808;-67
2022/03/09 02:17:11;;;;;;;7.28;4.55;;;;;;;-0.87;61.36;100787.55;1711244;81;21057;-66
2022/03/09 02:19:39;;;;;;;8.45;4.80;;;;;;;-0.87;61.21;100783.62;1723701;83;20978;-67
2022/03/09 02:22:32;;;;;;;6.85;4.33;;;;;;;-0.91;61.05;100787.59;1723588;83;21054;-67
2022/03/09 02:25:02;;;;;;;8.25;5.30;;;;;;;-0.92;61.04;100789.91;1683833;83;21114;-66
2022/03/09 02:27:29;;;;;;;8.75;5.53;;;;;;;-0.96;61.06;100795.16;1715039;81;21256;-67
2022/03/09 02:29:56;;;;;;;8.78;5.22;;;;;;;-0.96;61.13;100793.84;1712606;82;21513;-67
2022/03/09 02:32:23;;;;;;;9.25;5.15;;;;;;;-0.95;61.24;100794.19;1723433;81;21107;-66
2022/03/09 02:34:50;;;;;;;8.50;5.15;;;;;;;-0.91;61.19;100798.08;1715517;81;21123;-67
2022/03/09 02:37:18;;;;;;;10.38;5.70;;;;;;;-0.88;61.20;100800.85;1716569;81;21166;-65
2022/03/09 02:39:45;;;;;;;7.03;4.50;;;;;;;-0.87;61.22;100805.91;1658957;83;21927;-65
2022/03/09 02:42:12;;;;;;;9.93;5.80;;;;;;;-0.89;61.08;100811.81;1720168;81;21111;-65
2022/03/09 02:44:39;;;;;;;8.25;5.47;;;;;;;-0.95;61.07;100820.41;1719518;81;21040;-66
2022/03/09 02:47:07;;;;;;;9.80;5.35;;;;;;;-0.98;61.18;100816.32;1726862;82;20968;-66
2022/03/09 02:49:35;;;;;;;10.20;5.60;;;;;;;-0.99;61.19;100820.41;1716996;82;20961;-66
2022/03/09 02:52:05;;;;;;;10.25;5.92;;;;;;;-0.98;61.21;100816.32;1723801;81;21146;-66
2022/03/09 02:54:34;;;;;;;9.10;5.50;;;;;;;-0.93;61.04;100822.34;1692723;84;21082;-66
2022/03/09 02:57:00;;;;;;;9.88;6.17;;;;;;;-0.91;61.02;100820.37;1711177;83;21087;-67
2022/03/09 02:59:30;;;;;;;11.05;6.45;;;;;;;-0.88;60.96;100820.02;1723600;82;21070;-66
2022/03/09 03:01:57;;;;;;;9.63;6.17;;;;;;;-0.86;60.68;100823.27;1694070;83;21074;-65
2022/03/09 03:04:25;;;;;;;9.48;6.15;;;;;;;-0.90;60.52;100823.30;1685536;84;21270;-66
2022/03/09 03:06:52;;;;;;;8.80;5.95;;;;;;;-0.93;60.40;100821.53;1719000;81;21462;-65
2022/03/09 03:09:23;;;;;;;9.78;5.97;;;;;;;-1.00;60.27;100828.77;1713186;82;21105;-66
2022/03/09 03:11:50;;;;;;;9.38;5.97;;;;;;;-1.07;60.33;100830.97;1714419;82;21844;-65
2022/03/09 03:14:18;;;;;;;10.03;6.30;;;;;;;-1.10;60.48;100822.95;1708296;81;21498;-67
2022/03/09 03:16:47;;;;;;;10.43;6.45;;;;;;;-1.09;60.58;100831.13;1716540;81;21135;-65
2022/03/09 03:19:14;;;;;;;10.90;6.85;;;;;;;-1.08;60.66;100831.97;1717117;83;21100;-66
2022/03/09 03:21:40;;;;;;;10.15;6.45;;;;;;;-1.05;60.66;100836.86;1714766;81;21022;-66
2022/03/09 03:24:07;;;;;;;9.55;6.33;;;;;;;-1.07;60.45;100834.90;1718355;81;21605;-66
2022/03/09 03:26:37;;;;;;;10.30;6.67;;;;;;;-1.08;60.32;100837.20;1686387;83;21007;-66
2022/03/09 03:29:04;;;;;;;10.85;6.47;;;;;;;-1.13;60.28;100830.34;1714140;82;21269;-66
2022/03/09 03:31:31;;;;;;;9.78;5.95;;;;;;;-1.13;60.32;100830.34;1711348;83;21612;-66
2022/03/09 03:33:59;;;;;;;12.53;6.90;;;;;;;-1.17;60.43;100827.26;1713818;81;21105;-66
2022/03/09 03:36:26;;;;;;;10.03;6.37;;;;;;;-1.21;60.44;100824.17;1707214;82;21154;-66
2022/03/09 03:38:53;;;;;;;10.63;6.33;;;;;;;-1.20;60.30;100819.24;1735029;81;21101;-66
2022/03/09 03:41:20;;;;;;;8.83;6.25;;;;;;;-1.23;60.42;100835.31;1698650;83;21227;-66
2022/03/09 03:43:48;;;;;;;9.85;6.33;;;;;;;-1.27;60.43;100826.67;1712025;82;21034;-66
2022/03/09 03:46:14;;;;;;;11.15;6.83;;;;;;;-1.27;60.62;100823.55;1709946;82;21489;-67
2022/03/09 03:48:41;;;;;;;10.35;6.20;;;;;;;-1.28;60.61;100826.36;1709624;82;21081;-66
2022/03/09 03:51:08;;;;;;;10.32;6.78;;;;;;;-1.32;60.56;100825.05;1712172;83;20995;-66
2022/03/09 03:53:36;;;;;;;12.88;7.17;;;;;;;-1.36;60.66;100819.83;1711246;82;21264;-66
2022/03/09 03:56:05;;;;;;;9.15;6.75;;;;;;;-1.38;60.71;100823.95;1710741;81;21037;-66
2022/03/09 03:58:33;;;;;;;10.63;6.92;;;;;;;-1.39;60.77;100824.92;1717901;81;21575;-65
2022/03/09 04:00:59;;;;;;;10.85;7.20;;;;;;;-1.39;60.87;100828.03;1718052;83;21114;-66
2022/03/09 04:03:26;;;;;;;11.03;7.03;;;;;;;-1.44;60.86;100824.13;1701381;83;21011;-66
2022/03/09 04:05:53;;;;;;;10.15;6.80;;;;;;;-1.46;60.96;100822.67;1714114;82;21253;-66
2022/03/09 04:08:20;;;;;;;12.98;8.18;;;;;;;-1.47;61.01;100824.47;1727264;83;21104;-66
2022/03/09 04:10:48;;;;;;;11.73;7.50;;;;;;;-1.49;61.02;100824.31;1723740;82;21080;-66
2022/03/09 04:13:15;;;;;;;12.05;8.20;;;;;;;-1.51;61.17;100828.44;1709969;83;21178;-66
2022/03/09 04:15:42;;;;;;;12.45;8.15;;;;;;;-1.51;61.33;100827.13;1711325;82;21092;-67
2022/03/09 04:18:10;;;;;;;10.38;6.92;;;;;;;-1.49;61.36;100824.31;1714811;83;21986;-67
2022/03/09 04:20:39;;;;;;;11.75;7.30;;;;;;;-1.49;61.37;100822.51;1709167;83;21058;-67
2022/03/09 04:23:08;;;;;;;10.38;6.65;;;;;;;-1.48;61.48;100828.56;1712812;82;21132;-68
2022/03/09 04:25:39;;;;;;;11.97;7.03;;;;;;;-1.47;61.66;100830.22;1701418;83;21568;-65
2022/03/09 04:28:07;;;;;;;10.95;7.05;;;;;;;-1.51;61.61;100838.09;1716506;83;21587;-66
2022/03/09 04:30:34;;;;;;;12.10;8.53;;;;;;;-1.51;61.61;100838.09;1716576;82;21098;-66
2022/03/09 04:33:01;;;;;;;11.83;7.58;;;;;;;-1.54;61.73;100839.75;1716286;81;21109;-66
2022/03/09 04:35:30;;;;;;;11.15;6.90;;;;;;;-1.56;61.89;100841.70;1722537;81;21059;-66
2022/03/09 04:37:57;;;;;;;10.95;7.62;;;;;;;-1.57;61.84;100846.13;1712458;83;21112;-66
2022/03/09 04:40:24;;;;;;;12.78;8.20;;;;;;;-1.61;61.88;100842.70;1711954;81;21063;-67
2022/03/09 04:42:53;;;;;;;12.07;7.55;;;;;;;-1.64;61.84;100845.69;1712374;82;21018;-66
2022/03/09 04:45:20;;;;;;;10.48;8.00;;;;;;;-1.64;61.95;100846.81;1707435;82;21042;-66
2022/03/09 04:47:49;;;;;;;11.45;7.33;;;;;;;-1.63;61.98;100846.81;1718666;81;21542;-65
2022/03/09 04:50:16;;;;;;;11.28;6.90;;;;;;;-1.62;62.07;100851.05;1712073;82;21029;-66
2022/03/09 04:52:43;;;;;;;10.70;7.12;;;;;;;-1.60;62.17;100858.76;1715231;81;21171;-66
2022/03/09 04:55:11;;;;;;;9.53;6.17;;;;;;;-1.62;61.98;100864.15;1712651;83;21386;-66
2022/03/09 04:57:38;;;;;;;11.93;7.30;;;;;;;-1.62;61.98;100864.15;1715291;81;21174;-67
2022/03/09 05:00:10;;;;;;;10.05;7.10;;;;;;;-1.66;62.18;100861.05;1708453;82;21010;-67
2022/03/09 05:02:39;;;;;;;9.80;6.30;;;;;;;-1.67;61.97;100863.86;1717472;81;21512;-66
2022/03/09 05:05:07;;;;;;;10.30;6.92;;;;;;;-1.67;61.97;100863.86;1725993;83;20983;-67
2022/03/09 05:07:40;;;;;;;10.35;5.97;;;;;;;-1.69;62.22;100861.39;1712051;81;22355;-67
2022/03/09 05:10:10;;;;;;;9.68;6.70;;;;;;;-1.63;62.06;100869.57;1710812;83;21077;-66
2022/03/09 05:12:38;;;;;;;10.95;6.47;;;;;;;-1.63;62.06;100869.57;1711526;81;21111;-65
2022/03/09 05:15:07;;;;;;;10.30;6.62;;;;;;;-1.57;62.18;100880.69;1713758;83;20966;-67
2022/03/09 05:17:42;;;;;;;9.55;6.40;;;;;;;-1.52;62.01;100870.50;1720406;81;21037;-67
2022/03/09 05:20:11;;;;;;;11.63;6.47;;;;;;;-1.52;61.83;100879.67;1697054;84;21258;-66
2022/03/09 05:22:38;;;;;;;10.82;7.10;;;;;;;-1.48;61.79;100886.19;1707402;83;21063;-66
2022/03/09 05:25:09;;;;;;;9.33;5.60;;;;;;;-1.35;61.83;100890.42;1689674;83;21628;-67
2022/03/09 05:27:38;;;;;;;9.05;5.42;;;;;;;-1.35;61.83;100890.42;1680792;84;21428;-67
2022/03/09 05:30:06;;;;;;;9.28;6.28;;;;;;;-1.32;61.19;100887.44;1722200;81;21080;-67
2022/03/09 05:32:36;;;;;;;8.60;6.12;;;;;;;-1.31;61.11;100889.09;1715490;83;20985;-66
2022/03/09 05:35:05;;;;;;;12.70;7.65;;;;;;;-1.26;61.02;100881.52;1688225;83;20951;-67
2022/03/09 05:37:39;;;;;;;8.30;5.92;;;;;;;-1.17;60.96;100894.59;1686180;83;21126;-66
2022/03/09 05:40:08;;;;;;;10.18;6.60;;;;;;;-1.11;60.80;100905.70;1688868;83;21146;-66
2022/03/09 05:42:36;;;;;;;12.07;7.00;;;;;;;-1.09;60.29;100914.20;1722118;81;21033;-67
2022/03/09 05:45:05;;;;;;;8.95;5.72;;;;;;;-1.09;60.18;100910.27;1715436;82;21103;-67
2022/03/09 05:47:33;;;;;;;10.58;6.83;;;;;;;-1.10;60.07;100908.64;1716463;83;21014;-67
2022/03/09 05:51:12;;;;;;;10.32;6.70;;;;;;;-1.12;59.99;100912.73;1711099;82;21140;-67
2022/03/09 05:53:39;;;;;;;10.53;6.80;;;;;;;-1.10;60.07;100917.81;1715424;83;21152;-66
2022/03/09 05:56:06;;;;;;;10.28;6.85;;;;;;;-1.12;59.98;100919.78;1725058;83;21037;-67
2022/03/09 05:58:33;;;;;;;11.60;6.55;;;;;;;-1.12;60.00;100915.34;1726133;83;21927;-67
2022/03/09 06:01:00;;;;;;;10.30;6.80;;;;;;;-1.12;60.12;100921.09;1716430;81;20898;-66
2022/03/09 06:03:27;;;;;;;8.93;5.42;;;;;;;-1.12;60.01;100932.39;1709953;81;21147;-66
2022/03/09 06:05:54;;;;;;;11.90;6.90;;;;;;;-1.11;59.78;100925.37;1708514;83;21047;-67
2022/03/09 06:08:21;;;;;;;10.00;6.87;;;;;;;-1.11;59.85;100923.56;1715489;83;21556;-66
2022/03/09 06:10:53;;;;;;;10.48;6.92;;;;;;;-1.03;59.88;100935.80;1689374;83;22216;-66
2022/03/09 06:13:21;;;;;;;10.23;5.90;;;;;;;-0.95;59.83;100933.16;1724558;81;21046;-68
2022/03/09 06:15:49;;;;;;;10.45;5.95;;;;;;;-0.89;59.64;100937.68;1713548;82;21179;-67
2022/03/09 06:18:16;;;;;;;10.78;6.33;;;;;;;-0.89;59.27;100931.63;1693814;83;21126;-68
2022/03/09 06:20:44;;;;;;;11.73;6.90;;;;;;;-0.94;59.21;100938.70;1656045;83;21075;-67
2022/03/09 06:23:13;;;;;;;10.08;6.22;;;;;;;-1.00;59.12;100931.03;1714561;81;21169;-66
2022/03/09 06:25:40;;;;;;;10.20;6.42;;;;;;;-1.06;59.11;100938.27;1719150;82;21100;-67
2022/03/09 06:28:09;;;;;;;10.75;6.87;;;;;;;-1.07;59.25;100938.45;1715628;81;20997;-67
2022/03/09 06:30:37;;;;;;;10.08;6.55;;;;;;;-1.07;59.21;100943.69;1717540;83;21545;-66
2022/03/09 06:33:06;;;;;;;10.93;6.92;;;;;;;-1.05;59.20;100944.34;1697570;83;21545;-66
2022/03/09 06:35:34;;;;;;;11.12;7.00;;;;;;;-1.01;59.25;100942.52;1694602;83;21164;-66
2022/03/09 06:38:01;;;;;;;11.78;7.40;;;;;;;-0.92;59.32;100947.23;1718200;81;22162;-66
2022/03/09 06:40:29;;;;;;;9.55;6.42;;;;;;;-0.85;59.14;100942.92;1716723;82;21057;-68
2022/03/09 06:43:03;;;;;;;10.50;6.80;;;;;;;-0.83;58.84;100954.55;1713000;81;21046;-67
2022/03/09 06:45:28;;;;;;;11.30;7.05;;;;;;;-0.80;58.83;100951.08;1715656;82;21096;-66
2022/03/09 06:47:55;;;;;;;10.80;6.50;;;;;;;-0.78;58.76;100956.98;1718867;81;21452;-66
2022/03/09 06:50:22;;;;;;;10.53;6.78;;;;;;;-0.65;58.83;100954.30;1736258;81;21057;-66
2022/03/09 06:52:49;;;;;;;10.13;6.55;;;;;;;-0.54;58.58;100952.06;1718639;81;21480;-65
2022/03/09 06:55:17;;;;;;;10.85;7.10;;;;;;;-0.46;58.20;100953.84;1720215;81;21037;-67
2022/03/09 06:57:44;;;;;;;9.60;6.60;;;;;;;-0.42;58.11;100952.99;1713952;81;21022;-67
2022/03/09 07:00:14;;;;;;;10.48;6.80;;;;;;;-0.33;57.89;100947.98;1689778;83;21515;-66
2022/03/09 07:02:41;;;;;;;10.25;6.70;;;;;;;-0.24;57.76;100957.44;1693545;83;21352;-67
2022/03/09 07:05:09;;;;;;;9.88;6.35;;;;;;;-0.17;57.53;100950.98;1720813;81;21515;-66
2022/03/09 07:07:39;;;;;;;10.53;7.10;;;;;;;-0.12;57.41;100956.03;1725224;81;21016;-67
2022/03/09 07:10:10;;;;;;;9.43;6.40;;;;;;;-0.08;57.07;100949.92;1729260;81;21036;-67
2022/03/09 07:12:40;;;;;;;8.85;6.12;;;;;;;-0.08;56.91;100951.23;1698210;83;21302;-66
2022/03/09 07:15:09;;;;;;;9.53;6.50;;;;;;;-0.07;56.92;100950.23;1726561;81;21188;-67
2022/03/09 07:17:36;;;;;;;9.70;5.92;;;;;;;-0.02;56.86;100953.16;1693978;83;21052;-67
2022/03/09 07:20:05;;;;;;;9.95;6.55;;;;;;;0.01;56.94;100950.68;1709294;83;21000;-68
2022/03/09 07:22:32;;;;;;;10.68;6.90;;;;;;;0.06;56.56;100943.88;1719191;82;21112;-67
2022/03/09 07:25:01;;;;;;;10.10;7.00;;;;;;;0.08;56.45;100951.09;1706305;83;21311;-66
2022/03/09 07:27:29;;;;;;;9.58;6.67;;;;;;;0.13;56.56;100950.55;1714352;81;21134;-66
2022/03/09 07:29:57;;;;;;;10.82;7.08;;;;;;;0.22;56.47;100945.54;1713807;81;21090;-67
2022/03/09 07:32:25;;;;;;;9.28;6.65;;;;;;;0.36;56.45;100947.86;1695237;83;21150;-68
2022/03/09 07:34:54;;;;;;;10.40;7.10;;;;;;;0.46;56.12;100949.72;1726697;83;21546;-67
2022/03/09 07:37:21;;;;;;;10.85;7.05;;;;;;;0.54;55.80;100948.33;1726845;82;21191;-68
2022/03/09 07:39:49;;;;;;;11.08;6.62;;;;;;;0.60;55.61;100952.88;1712981;82;21143;-68
2022/03/09 07:42:16;;;;;;;10.53;6.55;;;;;;;0.62;55.30;100952.17;1710540;83;21108;-68
2022/03/09 07:44:43;;;;;;;11.33;7.20;;;;;;;0.65;55.03;100947.86;1707127;83;21072;-67
2022/03/09 07:47:10;;;;;;;11.35;7.28;;;;;;;0.64;55.05;100938.36;1719137;83;21593;-68
2022/03/09 07:49:38;;;;;;;9.85;6.58;;;;;;;0.79;55.32;100942.78;1726756;83;21320;-68
2022/03/09 07:52:06;;;;;;;9.50;6.75;;;;;;;0.95;54.97;100937.31;1727235;83;21065;-68
2022/03/09 07:54:33;;;;;;;9.55;6.90;;;;;;;1.03;54.64;100942.48;1727772;83;20994;-66
2022/03/09 07:57:01;;;;;;;11.35;6.87;;;;;;;1.08;54.33;100937.97;1716651;83;21055;-68
2022/03/09 07:59:29;;;;;;;10.18;6.87;;;;;;;1.13;54.22;100938.25;1716334;81;21571;-68
2022/03/09 08:01:57;;;;;;;10.70;6.87;;;;;;;1.20;53.82;100938.32;1691644;83;21234;-68
2022/03/09 08:04:24;;;;;;;9.23;6.60;;;;;;;1.24;53.83;100929.86;1692932;83;21021;-67
2022/03/09 08:06:54;;;;;;;11.20;7.75;;;;;;;1.29;53.67;100931.95;1687515;83;21821;-68
2022/03/09 08:09:21;;;;;;;11.03;7.25;;;;;;;1.36;53.62;100936.77;1716445;81;21456;-66
2022/03/09 08:11:48;;;;;;;9.93;7.05;;;;;;;1.45;53.44;100935.66;1715534;82;21103;-66
2022/03/09 08:14:16;;;;;;;10.85;7.50;;;;;;;1.59;53.22;100931.33;1719543;81;21500;-67
2022/03/09 08:16:44;;;;;;;10.03;6.80;;;;;;;1.69;52.92;100925.23;1716925;81;21091;-67
2022/03/09 08:19:12;;;;;;;10.38;7.28;;;;;;;1.75;52.49;100924.99;1713221;81;21033;-67
2022/03/09 08:21:39;;;;;;;8.78;5.85;;;;;;;1.78;52.34;100920.16;1721431;82;21117;-67
2022/03/09 08:24:07;;;;;;;10.75;7.72;;;;;;;1.78;52.12;100914.89;1716672;81;21065;-67
2022/03/09 08:26:34;;;;;;;12.10;7.28;;;;;;;1.80;52.40;100926.53;1688627;83;21610;-68
2022/03/09 08:29:01;;;;;;;11.75;7.62;;;;;;;1.95;52.34;100923.84;1716428;82;21130;-67
2022/03/09 08:31:28;;;;;;;11.73;8.05;;;;;;;2.08;51.97;100923.42;1719179;82;21130;-67
2022/03/09 08:33:55;;;;;;;12.88;8.90;;;;;;;2.16;51.87;100922.96;1719721;81;20947;-71
2022/03/09 08:36:22;;;;;;;11.05;7.47;;;;;;;2.22;51.76;100923.52;1718437;82;21128;-68
2022/03/09 08:38:49;;;;;;;11.57;7.62;;;;;;;2.25;51.35;100929.21;1716621;81;21178;-67
2022/03/09 08:41:16;;;;;;;11.90;7.70;;;;;;;2.24;51.31;100928.09;1721847;81;21049;-67
2022/03/09 08:43:43;;;;;;;11.20;7.60;;;;;;;2.21;51.29;100927.16;1716287;81;21574;-67
2022/03/09 08:46:11;;;;;;;12.28;7.78;;;;;;;2.09;51.17;100917.64;1682627;83;21102;-67
2022/03/09 08:48:39;;;;;;;10.38;7.03;;;;;;;1.98;51.54;100923.45;1712407;82;21156;-66
2022/03/09 08:51:08;;;;;;;11.38;7.62;;;;;;;1.92;51.81;100927.66;1720367;81;39495;-68
2022/03/09 08:53:35;;;;;;;10.95;7.65;;;;;;;1.82;51.91;100926.66;1727336;83;20959;-68
2022/03/09 08:56:03;;;;;;;10.45;7.33;;;;;;;1.73;52.16;100925.67;1726924;83;21619;-67
2022/03/09 08:58:32;;;;;;;10.23;7.25;;;;;;;1.75;52.25;100922.36;1714866;82;21089;-67
2022/03/09 09:00:59;;;;;;;10.88;7.67;;;;;;;1.82;52.20;100916.64;1725291;81;21029;-67
2022/03/09 09:03:26;;;;;;;10.25;7.53;;;;;;;1.93;52.10;100917.93;1709323;83;21954;-67
2022/03/09 09:05:53;;;;;;;11.03;7.53;;;;;;;2.04;52.15;100912.97;1696404;83;21180;-67
2022/03/09 09:08:21;;;;;;;11.10;7.80;;;;;;;2.13;51.99;100908.84;1715013;81;21095;-68
2022/03/09 09:10:48;;;;;;;10.03;7.20;;;;;;;2.17;51.83;100917.99;1713473;83;21095;-67
2022/03/09 09:13:17;;;;;;;10.82;7.62;;;;;;;2.16;51.58;100917.69;1703731;82;21053;-68
2022/03/09 09:15:45;;;;;;;12.68;7.70;;;;;;;2.09;51.51;100917.14;1698324;84;21541;-68
2022/03/09 09:18:13;;;;;;;11.93;8.18;;;;;;;2.08;51.99;100916.84;1708733;83;21097;-68
2022/03/09 09:20:42;;;;;;;12.40;7.83;;;;;;;2.15;51.82;100918.20;1725155;81;21057;-69
2022/03/09 09:23:10;;;;;;;12.43;8.10;;;;;;;2.18;51.39;100921.77;1727326;83;20970;-68
2022/03/09 09:25:38;;;;;;;12.15;7.60;;;;;;;2.18;51.82;100921.77;1725747;81;21064;-67
2022/03/09 09:28:05;;;;;;;11.08;8.05;;;;;;;2.31;51.98;100931.59;1704249;83;21591;-68
2022/03/09 09:30:33;;;;;;;11.50;8.00;;;;;;;2.45;51.86;100933.28;1695869;83;21040;-67
2022/03/09 09:33:00;;;;;;;11.30;8.00;;;;;;;2.54;51.50;100932.64;1712932;81;21615;-68
2022/03/09 09:35:29;;;;;;;11.30;7.97;;;;;;;2.55;51.05;100932.42;1679842;84;21104;-67
2022/03/09 09:37:56;;;;;;;11.75;8.08;;;;;;;2.54;50.68;100935.27;1711125;82;21025;-69
2022/03/09 09:40:24;;;;;;;10.13;7.37;;;;;;;2.47;50.63;100935.72;1706622;81;21261;-67
2022/03/09 09:42:51;;;;;;;11.35;7.33;;;;;;;2.55;50.92;100928.47;1711741;82;21124;-68
2022/03/09 09:45:18;;;;;;;11.25;7.87;;;;;;;2.65;50.50;100929.95;1715511;81;21643;-66
2022/03/09 09:47:46;;;;;;;10.65;7.42;;;;;;;2.72;50.71;100925.52;1710700;82;21061;-68
2022/03/09 09:50:14;;;;;;;12.60;8.13;;;;;;;2.76;50.72;100917.03;1711938;81;21773;-67
2022/03/09 09:52:42;;;;;;;11.95;8.18;;;;;;;2.84;50.16;100920.50;1717183;83;21335;-68
2022/03/09 09:55:09;;;;;;;11.05;7.80;;;;;;;2.86;50.14;100929.02;1716534;81;21521;-67
2022/03/09 09:57:36;;;;;;;11.53;8.00;;;;;;;2.98;50.15;100930.89;1713770;83;21481;-68
2022/03/09 10:00:06;;;;;;;10.82;7.40;;;;;;;3.13;49.94;100922.84;1712977;81;21111;-67
2022/03/09 10:02:38;;;;;;;12.15;8.03;;;;;;;3.26;49.80;100926.83;1697451;83;21006;-67
2022/03/09 10:05:05;;;;;;;11.75;7.83;;;;;;;3.34;49.46;100925.02;1718092;81;21153;-68
2022/03/09 10:07:32;;;;;;;10.20;7.10;;;;;;;3.41;49.16;100930.60;1727533;83;21050;-67
2022/03/09 10:09:59;;;;;;;10.48;7.50;;;;;;;3.36;49.04;100925.13;1734777;81;21138;-66
2022/03/09 10:12:28;;;;;;;11.73;8.15;;;;;;;3.32;48.89;100926.52;1727032;81;21076;-68
2022/03/09 10:14:55;;;;;;;8.88;6.25;;;;;;;3.28;49.20;100937.18;1718519;81;20966;-67
2022/03/09 10:17:29;;;;;;;10.88;7.92;;;;;;;3.32;49.11;100934.95;1727490;83;21256;-67
2022/03/09 10:20:00;;;;;;;10.80;7.95;;;;;;;3.34;49.11;100937.70;1709296;83;21537;-67
2022/03/09 10:22:33;;;;;;;9.53;7.35;;;;;;;3.34;48.91;100928.97;1710624;81;21041;-67
2022/03/09 10:25:11;;;;;;;10.53;7.87;;;;;;;3.34;48.80;100932.42;1710478;83;22340;-67
2022/03/09 10:27:53;;;;;;;11.95;8.10;;;;;;;3.36;49.12;100927.77;1710216;81;21201;-67
2022/03/09 10:30:33;;;;;;;9.23;6.70;;;;;;;3.45;48.89;100922.58;1706362;83;21146;-68
2022/03/09 10:33:05;;;;;;;11.20;8.10;;;;;;;3.50;48.63;100924.13;1698172;84;21081;-68
2022/03/09 10:35:43;;;;;;;9.48;6.87;;;;;;;3.47;48.86;100925.03;1703206;81;21056;-67
2022/03/09 10:38:20;;;;;;;10.32;7.58;;;;;;;3.48;48.41;100931.42;1708179;82;21097;-68
2022/03/09 10:40:55;;;;;;;10.08;6.90;;;;;;;3.43;48.36;100927.27;1716641;81;21139;-67
2022/03/09 10:43:25;;;;;;;9.53;6.83;;;;;;;3.41;47.88;100920.05;1710315;83;21225;-66
2022/03/09 10:46:10;;;;;;;8.10;5.60;;;;;;;3.35;47.61;100927.95;1710145;83;21030;-68
2022/03/09 10:49:03;;;;;;;9.05;6.20;;;;;;;3.33;47.82;100931.31;1715377;81;21020;-67
2022/03/09 10:51:36;;;;;;;7.35;5.12;;;;;;;3.32;47.64;100923.06;1710891;83;21229;-67
2022/03/09 10:54:16;;;;;;;8.70;5.40;;;;;;;3.35;46.43;100922.16;1713254;83;21013;-67
2022/03/09 10:56:44;;;;;;;6.42;4.67;;;;;;;3.39;46.29;100917.29;1678918;84;21138;-68
2022/03/09 10:59:14;;;;;;;9.15;6.17;;;;;;;3.44;46.55;100918.33;1714701;81;21127;-69
2022/03/09 11:01:44;;;;;;;9.78;7.05;;;;;;;3.51;46.69;100927.06;1681125;83;21060;-68
2022/03/09 11:04:18;;;;;;;9.55;6.70;;;;;;;3.48;46.39;100920.86;1724223;83;21578;-67
2022/03/09 11:06:48;;;;;;;8.85;6.10;;;;;;;3.35;46.54;100923.48;1728018;81;20992;-66
2022/03/09 11:09:18;;;;;;;8.90;6.10;;;;;;;3.20;46.72;100921.53;1714216;83;22304;-66
2022/03/09 11:11:48;;;;;;;10.72;7.40;;;;;;;3.08;47.03;100924.44;1713269;83;21111;-66
2022/03/09 11:14:19;;;;;;;9.00;6.65;;;;;;;2.96;47.58;100919.74;1712292;81;22394;-67
2022/03/09 11:16:48;;;;;;;8.68;6.35;;;;;;;2.89;47.79;100924.16;1725407;81;21020;-68
2022/03/09 11:19:16;;;;;;;8.65;6.00;;;;;;;2.87;47.75;100928.03;1713252;81;21067;-67
2022/03/09 11:21:44;;;;;;;8.95;5.85;;;;;;;2.85;47.42;100925.56;1694377;81;21169;-66
2022/03/09 11:24:13;;;;;;;8.75;5.97;;;;;;;2.87;47.28;100931.47;1720345;81;21075;-66
2022/03/09 11:26:50;;;;;;;9.43;6.08;;;;;;;2.87;47.30;100930.66;1721020;81;21205;-66
2022/03/09 11:29:31;;;;;;;12.85;6.10;;;;;;;2.87;47.30;100928.83;1712381;81;21128;-68
2022/03/09 11:31:58;;;;;;;7.92;5.65;;;;;;;3.00;47.43;100921.48;1709251;82;22714;-67
2022/03/09 11:34:46;;;;;;;7.72;4.87;;;;;;;3.20;47.21;100925.50;1714466;81;21299;-69